sensor_id;sensor_type;location;lat;lon;timestamp;temperature;humidity
790;DHT22;378;48.844;9.156;2023-04-28T00:01:44;11.50;99.90
790;DHT22;378;48.844;9.156;2023-04-28T00:04:12;11.40;99.90
790;DHT22;378;48.844;9.156;2023-04-28T00:06:39;11.40;99.90
790;DHT22;378;48.844;9.156;2023-04-28T00:09:06;11.50;99.90
790;DHT22;378;48.844;9.156;2023-04-28T00:11:35;11.50;99.90
790;DHT22;378;48.844;9.156;2023-04-28T00:14:02;11.50;99.90
790;DHT22;378;48.844;9.156;2023-04-28T00:16:29;11.50;99.90
790;DHT22;378;48.844;9.156;2023-04-28T00:18:56;11.50;99.90
790;DHT22;378;48.844;9.156;2023-04-28T00:21:24;11.60;99.90
790;DHT22;378;48.844;9.156;2023-04-28T00:23:51;11.60;99.90
790;DHT22;378;48.844;9.156;2023-04-28T00:26:17;11.60;99.90
790;DHT22;378;48.844;9.156;2023-04-28T00:28:44;11.60;99.90
790;DHT22;378;48.844;9.156;2023-04-28T00:31:11;11.70;99.90
790;DHT22;378;48.844;9.156;2023-04-28T00:33:39;11.60;99.90
790;DHT22;378;48.844;9.156;2023-04-28T00:36:06;11.70;99.90
790;DHT22;378;48.844;9.156;2023-04-28T00:38:35;11.70;99.90
790;DHT22;378;48.844;9.156;2023-04-28T00:41:02;11.70;99.90
790;DHT22;378;48.844;9.156;2023-04-28T00:43:28;11.70;99.90
790;DHT22;378;48.844;9.156;2023-04-28T00:45:55;11.70;99.90
790;DHT22;378;48.844;9.156;2023-04-28T00:48:22;11.60;99.90
790;DHT22;378;48.844;9.156;2023-04-28T00:50:49;11.70;99.90
790;DHT22;378;48.844;9.156;2023-04-28T00:53:16;11.70;99.90
790;DHT22;378;48.844;9.156;2023-04-28T00:55:46;11.80;99.90
790;DHT22;378;48.844;9.156;2023-04-28T00:58:13;11.80;99.90
790;DHT22;378;48.844;9.156;2023-04-28T01:00:40;11.70;99.90
790;DHT22;378;48.844;9.156;2023-04-28T01:03:07;11.70;99.90
790;DHT22;378;48.844;9.156;2023-04-28T01:05:35;11.80;99.90
790;DHT22;378;48.844;9.156;2023-04-28T01:08:02;11.80;99.90
790;DHT22;378;48.844;9.156;2023-04-28T01:10:29;11.80;99.90
790;DHT22;378;48.844;9.156;2023-04-28T01:12:57;11.80;99.90
790;DHT22;378;48.844;9.156;2023-04-28T01:15:25;11.80;99.90
790;DHT22;378;48.844;9.156;2023-04-28T01:17:52;11.80;99.90
790;DHT22;378;48.844;9.156;2023-04-28T01:20:19;11.80;99.90
790;DHT22;378;48.844;9.156;2023-04-28T01:22:46;11.80;99.90
790;DHT22;378;48.844;9.156;2023-04-28T01:25:14;11.80;99.90
790;DHT22;378;48.844;9.156;2023-04-28T01:27:41;11.80;99.90
790;DHT22;378;48.844;9.156;2023-04-28T01:30:08;11.80;99.90
790;DHT22;378;48.844;9.156;2023-04-28T01:32:36;11.70;99.90
790;DHT22;378;48.844;9.156;2023-04-28T01:35:03;11.80;99.90
790;DHT22;378;48.844;9.156;2023-04-28T01:37:29;11.70;99.90
790;DHT22;378;48.844;9.156;2023-04-28T01:39:56;11.70;99.90
790;DHT22;378;48.844;9.156;2023-04-28T01:42:24;11.60;99.90
790;DHT22;378;48.844;9.156;2023-04-28T01:44:51;11.70;99.90
790;DHT22;378;48.844;9.156;2023-04-28T01:47:18;11.70;99.90
790;DHT22;378;48.844;9.156;2023-04-28T01:49:45;11.70;99.90
790;DHT22;378;48.844;9.156;2023-04-28T01:52:14;11.70;99.90
790;DHT22;378;48.844;9.156;2023-04-28T01:57:46;11.60;99.90
790;DHT22;378;48.844;9.156;2023-04-28T02:00:13;11.60;99.90
790;DHT22;378;48.844;9.156;2023-04-28T02:02:40;11.70;99.90
790;DHT22;378;48.844;9.156;2023-04-28T02:05:07;11.70;99.90
790;DHT22;378;48.844;9.156;2023-04-28T02:07:34;11.80;99.90
790;DHT22;378;48.844;9.156;2023-04-28T02:10:01;11.70;99.90
790;DHT22;378;48.844;9.156;2023-04-28T02:12:27;11.70;99.90
790;DHT22;378;48.844;9.156;2023-04-28T02:14:56;11.70;99.90
790;DHT22;378;48.844;9.156;2023-04-28T02:17:22;11.80;99.90
790;DHT22;378;48.844;9.156;2023-04-28T02:19:53;11.70;99.90
790;DHT22;378;48.844;9.156;2023-04-28T02:22:20;11.70;99.90
790;DHT22;378;48.844;9.156;2023-04-28T02:24:47;11.70;99.90
790;DHT22;378;48.844;9.156;2023-04-28T02:27:14;11.80;99.90
790;DHT22;378;48.844;9.156;2023-04-28T02:29:41;11.80;99.90
790;DHT22;378;48.844;9.156;2023-04-28T02:32:09;11.80;99.90
790;DHT22;378;48.844;9.156;2023-04-28T02:34:36;11.70;99.90
790;DHT22;378;48.844;9.156;2023-04-28T02:37:03;11.70;99.90
790;DHT22;378;48.844;9.156;2023-04-28T02:39:30;11.70;99.90
790;DHT22;378;48.844;9.156;2023-04-28T02:41:57;11.70;99.90
790;DHT22;378;48.844;9.156;2023-04-28T02:44:24;11.60;99.90
790;DHT22;378;48.844;9.156;2023-04-28T02:46:51;11.60;99.90
790;DHT22;378;48.844;9.156;2023-04-28T02:49:19;11.70;99.90
790;DHT22;378;48.844;9.156;2023-04-28T02:51:46;11.70;99.90
790;DHT22;378;48.844;9.156;2023-04-28T02:54:13;11.70;99.90
790;DHT22;378;48.844;9.156;2023-04-28T02:56:40;11.70;99.90
790;DHT22;378;48.844;9.156;2023-04-28T02:59:06;11.60;99.90
790;DHT22;378;48.844;9.156;2023-04-28T03:01:33;11.50;99.90
790;DHT22;378;48.844;9.156;2023-04-28T03:04:00;11.40;99.90
790;DHT22;378;48.844;9.156;2023-04-28T03:06:28;11.30;99.90
790;DHT22;378;48.844;9.156;2023-04-28T03:08:56;11.20;99.90
790;DHT22;378;48.844;9.156;2023-04-28T03:11:23;11.10;99.90
790;DHT22;378;48.844;9.156;2023-04-28T03:13:50;11.10;99.90
790;DHT22;378;48.844;9.156;2023-04-28T03:16:17;10.90;99.90
790;DHT22;378;48.844;9.156;2023-04-28T03:18:44;10.80;99.90
790;DHT22;378;48.844;9.156;2023-04-28T03:21:11;10.70;99.90
790;DHT22;378;48.844;9.156;2023-04-28T03:23:39;10.70;99.90
790;DHT22;378;48.844;9.156;2023-04-28T03:26:06;10.60;99.90
790;DHT22;378;48.844;9.156;2023-04-28T03:28:32;10.50;99.90
790;DHT22;378;48.844;9.156;2023-04-28T03:30:59;10.50;99.90
790;DHT22;378;48.844;9.156;2023-04-28T03:33:27;10.50;99.90
790;DHT22;378;48.844;9.156;2023-04-28T03:35:54;10.40;99.90
790;DHT22;378;48.844;9.156;2023-04-28T03:38:21;10.50;99.90
790;DHT22;378;48.844;9.156;2023-04-28T03:40:49;10.60;99.90
790;DHT22;378;48.844;9.156;2023-04-28T03:43:16;10.60;99.90
790;DHT22;378;48.844;9.156;2023-04-28T03:45:43;10.60;99.90
790;DHT22;378;48.844;9.156;2023-04-28T03:48:09;10.60;99.90
790;DHT22;378;48.844;9.156;2023-04-28T03:50:36;10.60;99.90
790;DHT22;378;48.844;9.156;2023-04-28T03:53:05;10.60;99.90
790;DHT22;378;48.844;9.156;2023-04-28T03:55:32;10.60;99.90
790;DHT22;378;48.844;9.156;2023-04-28T03:58:00;10.60;99.90
790;DHT22;378;48.844;9.156;2023-04-28T04:00:27;10.60;99.90
790;DHT22;378;48.844;9.156;2023-04-28T04:02:54;10.60;99.90
790;DHT22;378;48.844;9.156;2023-04-28T04:05:21;10.60;99.90
790;DHT22;378;48.844;9.156;2023-04-28T04:07:47;10.50;99.90
790;DHT22;378;48.844;9.156;2023-04-28T04:10:14;10.50;99.90
790;DHT22;378;48.844;9.156;2023-04-28T04:12:41;10.50;99.90
790;DHT22;378;48.844;9.156;2023-04-28T04:15:10;10.60;99.90
790;DHT22;378;48.844;9.156;2023-04-28T04:17:37;10.60;99.90
790;DHT22;378;48.844;9.156;2023-04-28T04:20:05;10.60;99.90
790;DHT22;378;48.844;9.156;2023-04-28T04:22:32;10.60;99.90
790;DHT22;378;48.844;9.156;2023-04-28T04:24:58;10.60;99.90
790;DHT22;378;48.844;9.156;2023-04-28T04:27:25;10.50;99.90
790;DHT22;378;48.844;9.156;2023-04-28T04:29:52;10.70;99.90
790;DHT22;378;48.844;9.156;2023-04-28T04:32:20;10.70;99.90
790;DHT22;378;48.844;9.156;2023-04-28T04:34:47;10.80;99.90
790;DHT22;378;48.844;9.156;2023-04-28T04:37:14;10.80;99.90
790;DHT22;378;48.844;9.156;2023-04-28T04:39:41;10.80;99.90
790;DHT22;378;48.844;9.156;2023-04-28T04:42:07;10.90;99.90
790;DHT22;378;48.844;9.156;2023-04-28T04:44:34;10.90;99.90
790;DHT22;378;48.844;9.156;2023-04-28T04:47:01;11.00;99.90
790;DHT22;378;48.844;9.156;2023-04-28T04:49:29;11.00;99.90
790;DHT22;378;48.844;9.156;2023-04-28T04:51:56;11.10;99.90
790;DHT22;378;48.844;9.156;2023-04-28T04:54:23;11.00;99.90
790;DHT22;378;48.844;9.156;2023-04-28T04:56:50;11.10;99.90
790;DHT22;378;48.844;9.156;2023-04-28T04:59:17;11.10;99.90
790;DHT22;378;48.844;9.156;2023-04-28T05:01:44;11.00;99.90
790;DHT22;378;48.844;9.156;2023-04-28T05:04:11;11.00;99.90
790;DHT22;378;48.844;9.156;2023-04-28T05:06:39;10.90;99.90
790;DHT22;378;48.844;9.156;2023-04-28T05:09:06;10.80;99.90
790;DHT22;378;48.844;9.156;2023-04-28T05:11:33;10.80;99.90
790;DHT22;378;48.844;9.156;2023-04-28T05:14:00;10.80;99.90
790;DHT22;378;48.844;9.156;2023-04-28T05:16:27;10.70;99.90
790;DHT22;378;48.844;9.156;2023-04-28T05:18:54;10.80;99.90
790;DHT22;378;48.844;9.156;2023-04-28T05:21:20;10.90;99.90
790;DHT22;378;48.844;9.156;2023-04-28T05:23:49;10.90;99.90
790;DHT22;378;48.844;9.156;2023-04-28T05:26:15;10.90;99.90
790;DHT22;378;48.844;9.156;2023-04-28T05:28:42;10.90;99.90
790;DHT22;378;48.844;9.156;2023-04-28T05:31:09;10.90;99.90
790;DHT22;378;48.844;9.156;2023-04-28T05:33:36;10.90;99.90
790;DHT22;378;48.844;9.156;2023-04-28T05:36:03;11.00;99.90
790;DHT22;378;48.844;9.156;2023-04-28T05:38:30;11.00;99.90
790;DHT22;378;48.844;9.156;2023-04-28T05:41:00;11.00;99.90
790;DHT22;378;48.844;9.156;2023-04-28T05:43:27;11.10;99.90
790;DHT22;378;48.844;9.156;2023-04-28T05:45:53;11.10;99.90
790;DHT22;378;48.844;9.156;2023-04-28T05:48:20;11.10;99.90
790;DHT22;378;48.844;9.156;2023-04-28T05:50:47;11.10;99.90
790;DHT22;378;48.844;9.156;2023-04-28T05:53:14;11.10;99.90
790;DHT22;378;48.844;9.156;2023-04-28T05:55:41;11.10;99.90
790;DHT22;378;48.844;9.156;2023-04-28T05:58:09;11.10;99.90
790;DHT22;378;48.844;9.156;2023-04-28T06:00:36;11.20;99.90
790;DHT22;378;48.844;9.156;2023-04-28T06:03:03;11.10;99.90
790;DHT22;378;48.844;9.156;2023-04-28T06:05:29;11.20;99.90
790;DHT22;378;48.844;9.156;2023-04-28T06:07:56;11.20;99.90
790;DHT22;378;48.844;9.156;2023-04-28T06:10:24;11.20;99.90
790;DHT22;378;48.844;9.156;2023-04-28T06:12:51;11.20;99.90
790;DHT22;378;48.844;9.156;2023-04-28T06:15:19;11.10;99.90
790;DHT22;378;48.844;9.156;2023-04-28T06:17:46;11.00;99.90
790;DHT22;378;48.844;9.156;2023-04-28T06:20:13;11.00;99.90
790;DHT22;378;48.844;9.156;2023-04-28T06:22:41;11.00;99.90
790;DHT22;378;48.844;9.156;2023-04-28T06:25:08;11.10;99.90
790;DHT22;378;48.844;9.156;2023-04-28T06:27:35;11.10;99.90
790;DHT22;378;48.844;9.156;2023-04-28T06:30:02;11.10;99.90
790;DHT22;378;48.844;9.156;2023-04-28T06:32:30;11.20;99.90
790;DHT22;378;48.844;9.156;2023-04-28T06:34:57;11.20;99.90
790;DHT22;378;48.844;9.156;2023-04-28T06:37:24;11.20;99.90
790;DHT22;378;48.844;9.156;2023-04-28T06:39:51;11.30;99.90
790;DHT22;378;48.844;9.156;2023-04-28T06:42:18;11.30;99.90
790;DHT22;378;48.844;9.156;2023-04-28T06:44:45;11.40;99.90
790;DHT22;378;48.844;9.156;2023-04-28T06:47:11;11.40;99.90
790;DHT22;378;48.844;9.156;2023-04-28T06:49:40;11.50;99.90
790;DHT22;378;48.844;9.156;2023-04-28T06:52:08;11.50;99.90
790;DHT22;378;48.844;9.156;2023-04-28T06:54:35;11.50;99.90
790;DHT22;378;48.844;9.156;2023-04-28T06:57:02;11.60;99.90
790;DHT22;378;48.844;9.156;2023-04-28T06:59:30;11.60;99.90
790;DHT22;378;48.844;9.156;2023-04-28T07:01:56;11.70;99.90
790;DHT22;378;48.844;9.156;2023-04-28T07:04:24;11.70;99.90
790;DHT22;378;48.844;9.156;2023-04-28T07:06:53;11.70;99.90
790;DHT22;378;48.844;9.156;2023-04-28T07:09:19;11.60;99.90
790;DHT22;378;48.844;9.156;2023-04-28T07:11:46;11.60;99.90
790;DHT22;378;48.844;9.156;2023-04-28T07:14:13;11.50;99.90
790;DHT22;378;48.844;9.156;2023-04-28T07:16:40;11.50;99.90
790;DHT22;378;48.844;9.156;2023-04-28T07:19:07;11.50;99.90
790;DHT22;378;48.844;9.156;2023-04-28T07:21:33;11.50;99.90
790;DHT22;378;48.844;9.156;2023-04-28T07:24:02;11.50;99.90
790;DHT22;378;48.844;9.156;2023-04-28T07:26:29;11.50;99.90
790;DHT22;378;48.844;9.156;2023-04-28T07:28:56;11.50;99.90
790;DHT22;378;48.844;9.156;2023-04-28T07:31:23;11.50;99.90
790;DHT22;378;48.844;9.156;2023-04-28T07:33:50;11.50;99.90
790;DHT22;378;48.844;9.156;2023-04-28T07:36:17;11.50;99.90
790;DHT22;378;48.844;9.156;2023-04-28T07:38:44;11.50;99.90
790;DHT22;378;48.844;9.156;2023-04-28T07:41:12;11.50;99.90
790;DHT22;378;48.844;9.156;2023-04-28T07:43:39;11.60;99.90
790;DHT22;378;48.844;9.156;2023-04-28T07:46:07;11.60;99.90
790;DHT22;378;48.844;9.156;2023-04-28T07:48:34;11.60;99.90
790;DHT22;378;48.844;9.156;2023-04-28T07:51:01;11.60;99.90
790;DHT22;378;48.844;9.156;2023-04-28T07:53:27;11.70;99.90
790;DHT22;378;48.844;9.156;2023-04-28T07:55:54;11.80;99.90
790;DHT22;378;48.844;9.156;2023-04-28T07:58:23;11.80;99.90
790;DHT22;378;48.844;9.156;2023-04-28T08:00:49;11.80;99.90
790;DHT22;378;48.844;9.156;2023-04-28T08:03:16;11.80;99.90
790;DHT22;378;48.844;9.156;2023-04-28T08:05:43;11.80;99.90
790;DHT22;378;48.844;9.156;2023-04-28T08:08:10;11.70;99.90
790;DHT22;378;48.844;9.156;2023-04-28T08:10:37;11.70;99.90
790;DHT22;378;48.844;9.156;2023-04-28T08:13:06;11.70;99.90
790;DHT22;378;48.844;9.156;2023-04-28T08:15:34;11.70;99.90
790;DHT22;378;48.844;9.156;2023-04-28T08:18:02;11.70;99.90
790;DHT22;378;48.844;9.156;2023-04-28T08:20:28;11.70;99.90
790;DHT22;378;48.844;9.156;2023-04-28T08:22:57;11.60;99.90
790;DHT22;378;48.844;9.156;2023-04-28T08:25:24;11.60;99.90
790;DHT22;378;48.844;9.156;2023-04-28T08:27:50;11.60;99.90
790;DHT22;378;48.844;9.156;2023-04-28T08:30:18;11.70;99.90
790;DHT22;378;48.844;9.156;2023-04-28T08:32:46;11.80;99.90
790;DHT22;378;48.844;9.156;2023-04-28T08:35:13;11.80;99.90
790;DHT22;378;48.844;9.156;2023-04-28T08:37:40;11.90;99.90
790;DHT22;378;48.844;9.156;2023-04-28T08:40:08;12.00;99.90
790;DHT22;378;48.844;9.156;2023-04-28T08:42:35;12.10;99.90
790;DHT22;378;48.844;9.156;2023-04-28T08:45:03;12.10;99.90
790;DHT22;378;48.844;9.156;2023-04-28T08:47:33;12.20;99.90
790;DHT22;378;48.844;9.156;2023-04-28T08:50:04;12.40;99.90
790;DHT22;378;48.844;9.156;2023-04-28T08:52:31;12.50;99.90
790;DHT22;378;48.844;9.156;2023-04-28T08:54:59;12.70;99.90
790;DHT22;378;48.844;9.156;2023-04-28T08:57:34;12.80;99.90
790;DHT22;378;48.844;9.156;2023-04-28T09:00:02;12.80;99.90
790;DHT22;378;48.844;9.156;2023-04-28T09:02:29;13.10;99.90
790;DHT22;378;48.844;9.156;2023-04-28T09:04:56;13.00;99.90
790;DHT22;378;48.844;9.156;2023-04-28T09:07:24;12.90;99.90
790;DHT22;378;48.844;9.156;2023-04-28T09:10:14;12.90;99.90
790;DHT22;378;48.844;9.156;2023-04-28T09:12:41;12.80;99.90
790;DHT22;378;48.844;9.156;2023-04-28T09:15:09;12.80;99.90
790;DHT22;378;48.844;9.156;2023-04-28T09:17:46;12.90;99.90
790;DHT22;378;48.844;9.156;2023-04-28T09:20:19;12.90;99.90
790;DHT22;378;48.844;9.156;2023-04-28T09:22:48;13.00;99.90
790;DHT22;378;48.844;9.156;2023-04-28T09:25:16;13.00;99.90
790;DHT22;378;48.844;9.156;2023-04-28T09:27:44;13.10;99.90
790;DHT22;378;48.844;9.156;2023-04-28T09:30:11;13.10;99.90
790;DHT22;378;48.844;9.156;2023-04-28T09:32:38;13.30;99.90
790;DHT22;378;48.844;9.156;2023-04-28T09:35:06;13.40;99.90
790;DHT22;378;48.844;9.156;2023-04-28T09:37:33;13.50;99.90
790;DHT22;378;48.844;9.156;2023-04-28T09:40:08;13.50;99.90
790;DHT22;378;48.844;9.156;2023-04-28T09:42:36;13.50;99.90
790;DHT22;378;48.844;9.156;2023-04-28T09:45:05;13.50;99.90
790;DHT22;378;48.844;9.156;2023-04-28T09:47:33;13.50;99.90
790;DHT22;378;48.844;9.156;2023-04-28T09:50:01;13.60;99.90
790;DHT22;378;48.844;9.156;2023-04-28T09:52:28;13.60;99.90
790;DHT22;378;48.844;9.156;2023-04-28T09:54:56;13.70;99.90
790;DHT22;378;48.844;9.156;2023-04-28T09:57:24;14.00;99.90
790;DHT22;378;48.844;9.156;2023-04-28T09:59:52;14.30;99.90
790;DHT22;378;48.844;9.156;2023-04-28T10:02:20;14.50;99.90
790;DHT22;378;48.844;9.156;2023-04-28T10:04:48;14.90;99.90
790;DHT22;378;48.844;9.156;2023-04-28T10:07:16;15.10;99.90
790;DHT22;378;48.844;9.156;2023-04-28T10:09:44;15.20;99.90
790;DHT22;378;48.844;9.156;2023-04-28T10:12:13;15.40;99.90
790;DHT22;378;48.844;9.156;2023-04-28T10:14:41;15.50;99.90
790;DHT22;378;48.844;9.156;2023-04-28T10:17:09;15.40;99.90
790;DHT22;378;48.844;9.156;2023-04-28T10:19:37;15.30;99.90
790;DHT22;378;48.844;9.156;2023-04-28T10:22:18;15.40;99.90
790;DHT22;378;48.844;9.156;2023-04-28T10:25:01;15.30;99.90
790;DHT22;378;48.844;9.156;2023-04-28T10:27:32;15.50;99.90
790;DHT22;378;48.844;9.156;2023-04-28T10:30:12;16.30;99.90
790;DHT22;378;48.844;9.156;2023-04-28T10:32:39;16.90;99.90
790;DHT22;378;48.844;9.156;2023-04-28T10:35:40;17.50;99.90
790;DHT22;378;48.844;9.156;2023-04-28T10:38:09;17.50;99.90
790;DHT22;378;48.844;9.156;2023-04-28T10:40:38;17.60;99.90
790;DHT22;378;48.844;9.156;2023-04-28T10:43:06;17.60;99.90
790;DHT22;378;48.844;9.156;2023-04-28T10:46:00;17.40;99.90
790;DHT22;378;48.844;9.156;2023-04-28T10:48:55;17.40;99.90
790;DHT22;378;48.844;9.156;2023-04-28T10:51:28;17.30;99.90
790;DHT22;378;48.844;9.156;2023-04-28T10:54:15;17.10;99.90
790;DHT22;378;48.844;9.156;2023-04-28T10:57:18;17.00;99.90
790;DHT22;378;48.844;9.156;2023-04-28T10:59:46;16.90;99.90
790;DHT22;378;48.844;9.156;2023-04-28T11:02:42;16.90;99.90
790;DHT22;378;48.844;9.156;2023-04-28T11:05:18;16.80;99.90
790;DHT22;378;48.844;9.156;2023-04-28T11:11:27;16.40;99.90
790;DHT22;378;48.844;9.156;2023-04-28T11:14:29;16.30;99.90
790;DHT22;378;48.844;9.156;2023-04-28T11:16:47;16.40;99.90
790;DHT22;378;48.844;9.156;2023-04-28T11:19:18;16.60;99.90
790;DHT22;378;48.844;9.156;2023-04-28T11:21:46;16.50;99.90
790;DHT22;378;48.844;9.156;2023-04-28T11:24:13;16.40;99.90
790;DHT22;378;48.844;9.156;2023-04-28T11:26:40;16.50;99.90
790;DHT22;378;48.844;9.156;2023-04-28T11:29:08;16.80;99.90
790;DHT22;378;48.844;9.156;2023-04-28T11:31:36;17.00;99.90
790;DHT22;378;48.844;9.156;2023-04-28T11:34:05;16.90;99.90
790;DHT22;378;48.844;9.156;2023-04-28T11:36:35;16.80;99.90
790;DHT22;378;48.844;9.156;2023-04-28T11:39:03;16.70;99.90
790;DHT22;378;48.844;9.156;2023-04-28T11:41:32;16.60;99.90
790;DHT22;378;48.844;9.156;2023-04-28T11:43:59;16.50;99.90
790;DHT22;378;48.844;9.156;2023-04-28T11:46:26;16.70;99.90
790;DHT22;378;48.844;9.156;2023-04-28T11:49:00;16.70;99.90
790;DHT22;378;48.844;9.156;2023-04-28T11:51:31;16.90;99.90
790;DHT22;378;48.844;9.156;2023-04-28T11:54:00;17.00;99.90
790;DHT22;378;48.844;9.156;2023-04-28T11:56:27;17.00;99.90
790;DHT22;378;48.844;9.156;2023-04-28T11:59:02;17.20;99.90
790;DHT22;378;48.844;9.156;2023-04-28T12:01:29;17.30;99.90
790;DHT22;378;48.844;9.156;2023-04-28T12:03:56;17.40;99.90
790;DHT22;378;48.844;9.156;2023-04-28T12:06:23;17.40;99.90
790;DHT22;378;48.844;9.156;2023-04-28T12:08:50;17.40;99.90
790;DHT22;378;48.844;9.156;2023-04-28T12:11:18;17.50;99.90
790;DHT22;378;48.844;9.156;2023-04-28T12:14:04;17.60;99.90
790;DHT22;378;48.844;9.156;2023-04-28T12:16:41;17.90;99.90
790;DHT22;378;48.844;9.156;2023-04-28T12:19:10;17.90;99.90
790;DHT22;378;48.844;9.156;2023-04-28T12:21:38;17.90;99.90
790;DHT22;378;48.844;9.156;2023-04-28T12:24:19;17.70;99.90
790;DHT22;378;48.844;9.156;2023-04-28T12:26:48;17.40;99.90
790;DHT22;378;48.844;9.156;2023-04-28T12:29:36;17.00;99.90
790;DHT22;378;48.844;9.156;2023-04-28T12:32:05;16.70;99.90
790;DHT22;378;48.844;9.156;2023-04-28T12:34:32;16.50;99.90
790;DHT22;378;48.844;9.156;2023-04-28T12:36:59;16.40;99.90
790;DHT22;378;48.844;9.156;2023-04-28T12:39:26;16.20;99.90
790;DHT22;378;48.844;9.156;2023-04-28T12:41:55;16.00;99.90
790;DHT22;378;48.844;9.156;2023-04-28T12:44:23;15.80;99.90
790;DHT22;378;48.844;9.156;2023-04-28T12:46:52;15.60;99.90
790;DHT22;378;48.844;9.156;2023-04-28T12:49:19;15.30;99.90
790;DHT22;378;48.844;9.156;2023-04-28T12:51:46;15.10;99.90
790;DHT22;378;48.844;9.156;2023-04-28T12:54:13;15.00;99.90
790;DHT22;378;48.844;9.156;2023-04-28T12:56:40;14.90;99.90
790;DHT22;378;48.844;9.156;2023-04-28T12:59:09;15.00;99.90
790;DHT22;378;48.844;9.156;2023-04-28T13:01:36;15.40;99.90
790;DHT22;378;48.844;9.156;2023-04-28T13:04:03;15.60;99.90
790;DHT22;378;48.844;9.156;2023-04-28T13:06:30;15.80;99.90
790;DHT22;378;48.844;9.156;2023-04-28T13:08:57;15.90;99.90
790;DHT22;378;48.844;9.156;2023-04-28T13:11:24;15.80;99.90
790;DHT22;378;48.844;9.156;2023-04-28T13:13:52;15.80;99.90
790;DHT22;378;48.844;9.156;2023-04-28T13:16:22;15.90;99.90
790;DHT22;378;48.844;9.156;2023-04-28T13:18:54;16.10;99.90
790;DHT22;378;48.844;9.156;2023-04-28T13:21:22;16.10;99.90
790;DHT22;378;48.844;9.156;2023-04-28T13:23:51;16.20;99.90
790;DHT22;378;48.844;9.156;2023-04-28T13:26:18;16.10;99.90
790;DHT22;378;48.844;9.156;2023-04-28T13:28:45;16.10;99.90
790;DHT22;378;48.844;9.156;2023-04-28T13:31:12;16.50;99.90
790;DHT22;378;48.844;9.156;2023-04-28T13:33:40;16.70;99.90
790;DHT22;378;48.844;9.156;2023-04-28T13:36:07;17.10;99.90
790;DHT22;378;48.844;9.156;2023-04-28T13:38:34;17.60;99.90
790;DHT22;378;48.844;9.156;2023-04-28T13:41:01;17.80;99.90
790;DHT22;378;48.844;9.156;2023-04-28T13:43:28;17.80;99.90
790;DHT22;378;48.844;9.156;2023-04-28T13:45:55;17.70;99.90
790;DHT22;378;48.844;9.156;2023-04-28T13:48:23;17.50;99.90
790;DHT22;378;48.844;9.156;2023-04-28T13:50:51;17.10;99.90
790;DHT22;378;48.844;9.156;2023-04-28T13:53:18;17.00;99.90
790;DHT22;378;48.844;9.156;2023-04-28T13:55:44;16.70;99.90
790;DHT22;378;48.844;9.156;2023-04-28T13:58:12;16.30;99.90
790;DHT22;378;48.844;9.156;2023-04-28T14:00:39;16.10;99.90
790;DHT22;378;48.844;9.156;2023-04-28T14:03:06;16.00;99.90
790;DHT22;378;48.844;9.156;2023-04-28T14:05:35;15.80;99.90
790;DHT22;378;48.844;9.156;2023-04-28T14:08:03;15.70;99.90
790;DHT22;378;48.844;9.156;2023-04-28T14:10:30;15.60;99.90
790;DHT22;378;48.844;9.156;2023-04-28T14:12:57;15.60;99.90
790;DHT22;378;48.844;9.156;2023-04-28T14:15:24;15.50;99.90
790;DHT22;378;48.844;9.156;2023-04-28T14:17:51;15.60;99.90
790;DHT22;378;48.844;9.156;2023-04-28T14:20:18;15.70;99.90
790;DHT22;378;48.844;9.156;2023-04-28T14:22:45;15.70;99.90
790;DHT22;378;48.844;9.156;2023-04-28T14:25:13;15.50;99.90
790;DHT22;378;48.844;9.156;2023-04-28T14:27:40;15.40;99.90
790;DHT22;378;48.844;9.156;2023-04-28T14:30:09;15.40;99.90
790;DHT22;378;48.844;9.156;2023-04-28T14:32:37;15.40;99.90
790;DHT22;378;48.844;9.156;2023-04-28T14:35:04;15.40;99.90
790;DHT22;378;48.844;9.156;2023-04-28T14:37:32;15.40;99.90
790;DHT22;378;48.844;9.156;2023-04-28T14:39:59;15.40;99.90
790;DHT22;378;48.844;9.156;2023-04-28T14:42:30;15.40;99.90
790;DHT22;378;48.844;9.156;2023-04-28T14:44:57;15.50;99.90
790;DHT22;378;48.844;9.156;2023-04-28T14:47:25;15.40;99.90
790;DHT22;378;48.844;9.156;2023-04-28T14:49:53;15.50;99.90
790;DHT22;378;48.844;9.156;2023-04-28T14:52:20;15.50;99.90
790;DHT22;378;48.844;9.156;2023-04-28T14:54:47;15.50;99.90
790;DHT22;378;48.844;9.156;2023-04-28T14:57:14;15.60;99.90
790;DHT22;378;48.844;9.156;2023-04-28T14:59:42;15.70;99.90
790;DHT22;378;48.844;9.156;2023-04-28T15:02:09;15.70;99.90
790;DHT22;378;48.844;9.156;2023-04-28T15:04:37;15.70;99.90
790;DHT22;378;48.844;9.156;2023-04-28T15:07:04;15.80;99.90
790;DHT22;378;48.844;9.156;2023-04-28T15:09:33;15.90;99.90
790;DHT22;378;48.844;9.156;2023-04-28T15:12:00;15.90;99.90
790;DHT22;378;48.844;9.156;2023-04-28T15:14:27;15.80;99.90
790;DHT22;378;48.844;9.156;2023-04-28T15:16:55;15.90;99.90
790;DHT22;378;48.844;9.156;2023-04-28T15:19:22;15.80;99.90
790;DHT22;378;48.844;9.156;2023-04-28T15:21:49;15.90;99.90
790;DHT22;378;48.844;9.156;2023-04-28T15:24:18;16.00;99.90
790;DHT22;378;48.844;9.156;2023-04-28T15:26:45;16.00;99.90
790;DHT22;378;48.844;9.156;2023-04-28T15:29:12;16.10;99.90
790;DHT22;378;48.844;9.156;2023-04-28T15:31:39;16.00;99.90
790;DHT22;378;48.844;9.156;2023-04-28T15:34:07;16.00;99.90
790;DHT22;378;48.844;9.156;2023-04-28T15:36:36;16.10;99.90
790;DHT22;378;48.844;9.156;2023-04-28T15:39:03;16.10;99.90
790;DHT22;378;48.844;9.156;2023-04-28T15:41:30;16.10;99.90
790;DHT22;378;48.844;9.156;2023-04-28T15:43:57;16.10;99.90
790;DHT22;378;48.844;9.156;2023-04-28T15:46:25;16.00;99.90
790;DHT22;378;48.844;9.156;2023-04-28T15:48:52;15.90;99.90
790;DHT22;378;48.844;9.156;2023-04-28T15:51:21;16.00;99.90
790;DHT22;378;48.844;9.156;2023-04-28T15:53:47;15.90;99.90
790;DHT22;378;48.844;9.156;2023-04-28T15:56:15;15.90;99.90
790;DHT22;378;48.844;9.156;2023-04-28T15:58:42;15.90;99.90
790;DHT22;378;48.844;9.156;2023-04-28T16:01:09;16.00;99.90
790;DHT22;378;48.844;9.156;2023-04-28T16:03:36;15.90;99.90
790;DHT22;378;48.844;9.156;2023-04-28T16:06:04;15.80;99.90
790;DHT22;378;48.844;9.156;2023-04-28T16:08:32;15.80;99.90
790;DHT22;378;48.844;9.156;2023-04-28T16:10:59;15.60;99.90
790;DHT22;378;48.844;9.156;2023-04-28T16:13:27;15.50;99.90
790;DHT22;378;48.844;9.156;2023-04-28T16:15:57;15.30;99.90
790;DHT22;378;48.844;9.156;2023-04-28T16:18:24;15.20;99.90
790;DHT22;378;48.844;9.156;2023-04-28T16:20:51;15.10;99.90
790;DHT22;378;48.844;9.156;2023-04-28T16:23:18;15.00;99.90
790;DHT22;378;48.844;9.156;2023-04-28T16:25:47;14.90;99.90
790;DHT22;378;48.844;9.156;2023-04-28T16:28:15;14.90;99.90
790;DHT22;378;48.844;9.156;2023-04-28T16:30:42;14.80;99.90
790;DHT22;378;48.844;9.156;2023-04-28T16:33:09;14.70;99.90
790;DHT22;378;48.844;9.156;2023-04-28T16:35:36;14.70;99.90
790;DHT22;378;48.844;9.156;2023-04-28T16:38:03;14.60;99.90
790;DHT22;378;48.844;9.156;2023-04-28T16:40:30;14.60;99.90
790;DHT22;378;48.844;9.156;2023-04-28T16:42:58;14.60;99.90
790;DHT22;378;48.844;9.156;2023-04-28T16:45:25;14.70;99.90
790;DHT22;378;48.844;9.156;2023-04-28T16:47:52;14.70;99.90